sensor_id;sensor_type;location;lat;lon;timestamp;P1;durP1;ratioP1;P2;durP2;ratioP2
41456;SDS011;27197;51.752;5.220;2023-09-18T00:01:27;7.70;;;5.47;;
41456;SDS011;27197;51.752;5.220;2023-09-18T00:03:57;7.12;;;5.90;;
41456;SDS011;27197;51.752;5.220;2023-09-18T00:06:28;7.35;;;5.33;;
41456;SDS011;27197;51.752;5.220;2023-09-18T00:09:01;6.62;;;5.70;;
41456;SDS011;27197;51.752;5.220;2023-09-18T00:11:35;7.53;;;5.42;;
41456;SDS011;27197;51.752;5.220;2023-09-18T00:14:04;8.48;;;5.95;;
41456;SDS011;27197;51.752;5.220;2023-09-18T00:16:38;7.62;;;6.33;;
41456;SDS011;27197;51.752;5.220;2023-09-18T00:19:15;7.15;;;5.87;;
41456;SDS011;27197;51.752;5.220;2023-09-18T00:21:48;6.60;;;5.42;;
41456;SDS011;27197;51.752;5.220;2023-09-18T00:24:19;6.80;;;5.55;;
41456;SDS011;27197;51.752;5.220;2023-09-18T00:26:51;7.78;;;5.53;;
41456;SDS011;27197;51.752;5.220;2023-09-18T00:29:24;6.70;;;5.60;;
41456;SDS011;27197;51.752;5.220;2023-09-18T00:32:01;6.42;;;5.30;;
41456;SDS011;27197;51.752;5.220;2023-09-18T00:34:31;5.58;;;4.67;;
41456;SDS011;27197;51.752;5.220;2023-09-18T00:37:06;9.75;;;5.67;;
41456;SDS011;27197;51.752;5.220;2023-09-18T00:39:36;6.10;;;5.40;;
41456;SDS011;27197;51.752;5.220;2023-09-18T00:42:09;7.05;;;5.78;;
41456;SDS011;27197;51.752;5.220;2023-09-18T00:44:42;6.05;;;5.25;;
41456;SDS011;27197;51.752;5.220;2023-09-18T00:47:18;7.08;;;5.37;;
41456;SDS011;27197;51.752;5.220;2023-09-18T00:49:48;6.40;;;5.67;;
41456;SDS011;27197;51.752;5.220;2023-09-18T00:52:21;6.42;;;5.37;;
41456;SDS011;27197;51.752;5.220;2023-09-18T00:54:57;6.70;;;5.30;;
41456;SDS011;27197;51.752;5.220;2023-09-18T00:57:26;6.22;;;5.15;;
41456;SDS011;27197;51.752;5.220;2023-09-18T01:00:01;6.03;;;5.20;;
41456;SDS011;27197;51.752;5.220;2023-09-18T01:02:31;6.60;;;5.40;;
41456;SDS011;27197;51.752;5.220;2023-09-18T01:05:04;6.72;;;5.33;;
41456;SDS011;27197;51.752;5.220;2023-09-18T01:07:37;6.80;;;5.62;;
41456;SDS011;27197;51.752;5.220;2023-09-18T01:10:06;7.92;;;5.20;;
41456;SDS011;27197;51.752;5.220;2023-09-18T01:15:37;6.30;;;5.47;;
41456;SDS011;27197;51.752;5.220;2023-09-18T01:18:08;7.33;;;5.40;;
41456;SDS011;27197;51.752;5.220;2023-09-18T01:20:43;7.08;;;5.35;;
41456;SDS011;27197;51.752;5.220;2023-09-18T01:23:13;5.97;;;5.25;;
41456;SDS011;27197;51.752;5.220;2023-09-18T01:25:44;7.03;;;5.28;;
41456;SDS011;27197;51.752;5.220;2023-09-18T01:28:13;7.58;;;5.95;;
41456;SDS011;27197;51.752;5.220;2023-09-18T01:30:45;6.58;;;4.95;;
41456;SDS011;27197;51.752;5.220;2023-09-18T01:33:15;6.60;;;5.03;;
41456;SDS011;27197;51.752;5.220;2023-09-18T01:35:48;5.50;;;4.90;;
41456;SDS011;27197;51.752;5.220;2023-09-18T01:38:19;5.40;;;4.58;;
41456;SDS011;27197;51.752;5.220;2023-09-18T01:40:54;7.83;;;5.45;;
41456;SDS011;27197;51.752;5.220;2023-09-18T01:43:23;6.37;;;5.08;;
41456;SDS011;27197;51.752;5.220;2023-09-18T01:45:59;6.22;;;4.90;;
41456;SDS011;27197;51.752;5.220;2023-09-18T01:48:29;6.87;;;5.30;;
41456;SDS011;27197;51.752;5.220;2023-09-18T01:50:58;10.63;;;6.95;;
41456;SDS011;27197;51.752;5.220;2023-09-18T01:53:30;6.22;;;5.10;;
41456;SDS011;27197;51.752;5.220;2023-09-18T01:56:00;8.15;;;6.15;;
41456;SDS011;27197;51.752;5.220;2023-09-18T01:58:31;10.13;;;8.25;;
41456;SDS011;27197;51.752;5.220;2023-09-18T02:01:06;9.73;;;8.13;;
41456;SDS011;27197;51.752;5.220;2023-09-18T02:03:39;7.40;;;6.50;;
41456;SDS011;27197;51.752;5.220;2023-09-18T02:06:11;10.82;;;7.85;;
41456;SDS011;27197;51.752;5.220;2023-09-18T02:08:41;13.08;;;8.33;;
41456;SDS011;27197;51.752;5.220;2023-09-18T02:11:11;11.43;;;8.63;;
41456;SDS011;27197;51.752;5.220;2023-09-18T02:13:41;11.05;;;8.38;;
41456;SDS011;27197;51.752;5.220;2023-09-18T02:16:15;14.45;;;9.28;;
41456;SDS011;27197;51.752;5.220;2023-09-18T02:18:45;11.40;;;8.58;;
41456;SDS011;27197;51.752;5.220;2023-09-18T02:21:21;8.45;;;6.80;;
41456;SDS011;27197;51.752;5.220;2023-09-18T02:23:54;6.10;;;5.03;;
41456;SDS011;27197;51.752;5.220;2023-09-18T02:26:25;5.72;;;4.65;;
41456;SDS011;27197;51.752;5.220;2023-09-18T02:28:59;7.60;;;5.67;;
41456;SDS011;27197;51.752;5.220;2023-09-18T02:31:31;10.58;;;8.40;;
41456;SDS011;27197;51.752;5.220;2023-09-18T02:34:01;7.95;;;5.40;;
41456;SDS011;27197;51.752;5.220;2023-09-18T02:36:32;9.08;;;6.75;;
41456;SDS011;27197;51.752;5.220;2023-09-18T02:39:03;7.53;;;5.20;;
41456;SDS011;27197;51.752;5.220;2023-09-18T02:41:34;5.90;;;4.58;;
41456;SDS011;27197;51.752;5.220;2023-09-18T02:44:07;6.70;;;4.92;;
41456;SDS011;27197;51.752;5.220;2023-09-18T02:46:37;7.83;;;5.80;;
41456;SDS011;27197;51.752;5.220;2023-09-18T02:49:07;11.63;;;8.23;;
41456;SDS011;27197;51.752;5.220;2023-09-18T02:51:38;9.33;;;7.90;;
41456;SDS011;27197;51.752;5.220;2023-09-18T02:54:07;7.08;;;5.40;;
41456;SDS011;27197;51.752;5.220;2023-09-18T02:56:38;8.93;;;6.15;;
41456;SDS011;27197;51.752;5.220;2023-09-18T02:59:09;9.63;;;6.45;;
41456;SDS011;27197;51.752;5.220;2023-09-18T03:01:39;9.03;;;6.60;;
41456;SDS011;27197;51.752;5.220;2023-09-18T03:04:09;10.03;;;7.92;;
41456;SDS011;27197;51.752;5.220;2023-09-18T03:06:38;9.08;;;6.97;;
41456;SDS011;27197;51.752;5.220;2023-09-18T03:09:09;8.18;;;5.70;;
41456;SDS011;27197;51.752;5.220;2023-09-18T03:11:40;10.13;;;6.65;;
41456;SDS011;27197;51.752;5.220;2023-09-18T03:14:09;10.55;;;7.22;;
41456;SDS011;27197;51.752;5.220;2023-09-18T03:16:42;8.08;;;6.15;;
41456;SDS011;27197;51.752;5.220;2023-09-18T03:19:11;6.85;;;5.00;;
41456;SDS011;27197;51.752;5.220;2023-09-18T03:21:45;8.98;;;6.17;;
41456;SDS011;27197;51.752;5.220;2023-09-18T03:32:35;8.05;;;5.87;;
41456;SDS011;27197;51.752;5.220;2023-09-18T03:35:07;6.72;;;4.97;;
41456;SDS011;27197;51.752;5.220;2023-09-18T03:37:37;10.48;;;5.62;;
41456;SDS011;27197;51.752;5.220;2023-09-18T03:40:06;5.22;;;4.42;;
41456;SDS011;27197;51.752;5.220;2023-09-18T03:42:38;6.72;;;5.33;;
41456;SDS011;27197;51.752;5.220;2023-09-18T03:45:08;6.55;;;5.17;;
41456;SDS011;27197;51.752;5.220;2023-09-18T03:47:41;5.67;;;4.17;;
41456;SDS011;27197;51.752;5.220;2023-09-18T03:50:10;5.17;;;4.03;;
41456;SDS011;27197;51.752;5.220;2023-09-18T03:52:42;5.95;;;4.72;;
41456;SDS011;27197;51.752;5.220;2023-09-18T03:55:12;6.28;;;4.85;;
41456;SDS011;27197;51.752;5.220;2023-09-18T03:57:41;5.37;;;4.17;;
41456;SDS011;27197;51.752;5.220;2023-09-18T04:00:13;4.47;;;3.85;;
41456;SDS011;27197;51.752;5.220;2023-09-18T04:02:44;5.55;;;4.55;;
41456;SDS011;27197;51.752;5.220;2023-09-18T04:05:19;6.25;;;4.28;;
41456;SDS011;27197;51.752;5.220;2023-09-18T04:07:51;11.30;;;5.60;;
41456;SDS011;27197;51.752;5.220;2023-09-18T04:10:21;8.65;;;6.00;;
41456;SDS011;27197;51.752;5.220;2023-09-18T04:12:52;6.67;;;4.83;;
41456;SDS011;27197;51.752;5.220;2023-09-18T04:15:22;7.37;;;5.72;;
41456;SDS011;27197;51.752;5.220;2023-09-18T04:17:55;6.90;;;5.08;;
41456;SDS011;27197;51.752;5.220;2023-09-18T04:20:25;7.50;;;5.85;;
41456;SDS011;27197;51.752;5.220;2023-09-18T04:25:54;8.40;;;6.22;;
41456;SDS011;27197;51.752;5.220;2023-09-18T04:28:28;6.85;;;4.97;;
41456;SDS011;27197;51.752;5.220;2023-09-18T04:31:00;8.00;;;6.37;;
41456;SDS011;27197;51.752;5.220;2023-09-18T04:33:31;10.13;;;6.53;;
41456;SDS011;27197;51.752;5.220;2023-09-18T04:36:02;10.93;;;6.55;;
41456;SDS011;27197;51.752;5.220;2023-09-18T04:38:33;6.30;;;4.70;;
41456;SDS011;27197;51.752;5.220;2023-09-18T04:41:02;9.03;;;5.87;;
41456;SDS011;27197;51.752;5.220;2023-09-18T04:43:33;6.22;;;4.67;;
41456;SDS011;27197;51.752;5.220;2023-09-18T04:46:07;7.10;;;5.62;;
41456;SDS011;27197;51.752;5.220;2023-09-18T04:48:37;7.97;;;5.75;;
41456;SDS011;27197;51.752;5.220;2023-09-18T04:51:07;5.55;;;4.40;;
41456;SDS011;27197;51.752;5.220;2023-09-18T04:53:40;6.78;;;4.55;;
41456;SDS011;27197;51.752;5.220;2023-09-18T04:56:09;7.40;;;5.50;;
41456;SDS011;27197;51.752;5.220;2023-09-18T04:58:39;7.15;;;5.03;;
41456;SDS011;27197;51.752;5.220;2023-09-18T05:01:11;6.17;;;4.50;;
41456;SDS011;27197;51.752;5.220;2023-09-18T05:03:41;6.17;;;4.62;;
41456;SDS011;27197;51.752;5.220;2023-09-18T05:06:12;6.78;;;5.08;;
41456;SDS011;27197;51.752;5.220;2023-09-18T05:08:42;7.53;;;5.50;;
41456;SDS011;27197;51.752;5.220;2023-09-18T05:11:17;5.20;;;4.40;;
41456;SDS011;27197;51.752;5.220;2023-09-18T05:13:46;6.35;;;4.50;;
41456;SDS011;27197;51.752;5.220;2023-09-18T05:16:20;6.97;;;4.72;;
41456;SDS011;27197;51.752;5.220;2023-09-18T05:18:53;5.70;;;4.12;;
41456;SDS011;27197;51.752;5.220;2023-09-18T05:21:24;7.80;;;5.55;;
41456;SDS011;27197;51.752;5.220;2023-09-18T05:23:56;9.75;;;6.12;;
41456;SDS011;27197;51.752;5.220;2023-09-18T05:26:30;7.83;;;5.90;;
41456;SDS011;27197;51.752;5.220;2023-09-18T05:29:02;8.30;;;5.78;;
41456;SDS011;27197;51.752;5.220;2023-09-18T05:31:32;7.03;;;4.33;;
41456;SDS011;27197;51.752;5.220;2023-09-18T05:34:02;6.53;;;3.70;;
41456;SDS011;27197;51.752;5.220;2023-09-18T05:36:34;5.80;;;3.85;;
41456;SDS011;27197;51.752;5.220;2023-09-18T05:39:04;6.72;;;4.20;;
41456;SDS011;27197;51.752;5.220;2023-09-18T05:41:38;10.68;;;5.40;;
41456;SDS011;27197;51.752;5.220;2023-09-18T05:44:07;17.37;;;5.15;;
41456;SDS011;27197;51.752;5.220;2023-09-18T05:46:40;10.00;;;4.50;;
41456;SDS011;27197;51.752;5.220;2023-09-18T05:49:10;8.73;;;4.30;;
41456;SDS011;27197;51.752;5.220;2023-09-18T05:51:42;13.62;;;4.62;;
41456;SDS011;27197;51.752;5.220;2023-09-18T05:54:14;10.53;;;4.62;;
41456;SDS011;27197;51.752;5.220;2023-09-18T05:56:47;9.20;;;4.72;;
41456;SDS011;27197;51.752;5.220;2023-09-18T05:59:21;9.53;;;5.45;;
41456;SDS011;27197;51.752;5.220;2023-09-18T06:01:54;9.65;;;4.80;;
41456;SDS011;27197;51.752;5.220;2023-09-18T06:04:24;9.58;;;5.42;;
41456;SDS011;27197;51.752;5.220;2023-09-18T06:06:55;8.75;;;4.83;;
41456;SDS011;27197;51.752;5.220;2023-09-18T06:09:28;8.40;;;4.40;;
41456;SDS011;27197;51.752;5.220;2023-09-18T06:11:59;10.38;;;4.97;;
41456;SDS011;27197;51.752;5.220;2023-09-18T06:14:32;8.68;;;5.10;;
41456;SDS011;27197;51.752;5.220;2023-09-18T06:17:01;9.63;;;4.85;;
41456;SDS011;27197;51.752;5.220;2023-09-18T06:19:34;7.90;;;4.78;;
41456;SDS011;27197;51.752;5.220;2023-09-18T06:22:05;6.03;;;4.33;;
41456;SDS011;27197;51.752;5.220;2023-09-18T06:24:36;7.87;;;5.42;;
41456;SDS011;27197;51.752;5.220;2023-09-18T06:27:10;9.03;;;4.97;;
41456;SDS011;27197;51.752;5.220;2023-09-18T06:29:40;6.55;;;4.40;;
41456;SDS011;27197;51.752;5.220;2023-09-18T06:32:10;9.03;;;4.10;;
41456;SDS011;27197;51.752;5.220;2023-09-18T06:34:40;7.17;;;4.78;;
41456;SDS011;27197;51.752;5.220;2023-09-18T06:37:10;5.95;;;4.53;;
41456;SDS011;27197;51.752;5.220;2023-09-18T06:39:59;11.15;;;4.70;;
41456;SDS011;27197;51.752;5.220;2023-09-18T06:42:28;7.20;;;4.28;;
41456;SDS011;27197;51.752;5.220;2023-09-18T06:44:56;6.03;;;3.80;;
41456;SDS011;27197;51.752;5.220;2023-09-18T06:47:23;6.78;;;3.83;;
41456;SDS011;27197;51.752;5.220;2023-09-18T06:49:51;7.08;;;3.55;;
41456;SDS011;27197;51.752;5.220;2023-09-18T06:52:22;6.50;;;3.60;;
41456;SDS011;27197;51.752;5.220;2023-09-18T06:54:55;5.83;;;3.02;;
41456;SDS011;27197;51.752;5.220;2023-09-18T06:57:24;4.83;;;2.70;;
41456;SDS011;27197;51.752;5.220;2023-09-18T06:59:53;6.70;;;2.90;;
41456;SDS011;27197;51.752;5.220;2023-09-18T07:02:23;5.40;;;2.62;;
41456;SDS011;27197;51.752;5.220;2023-09-18T07:04:56;5.08;;;3.20;;
41456;SDS011;27197;51.752;5.220;2023-09-18T07:07:26;5.65;;;3.58;;
41456;SDS011;27197;51.752;5.220;2023-09-18T07:09:54;6.08;;;2.83;;
41456;SDS011;27197;51.752;5.220;2023-09-18T07:12:21;5.00;;;3.00;;
41456;SDS011;27197;51.752;5.220;2023-09-18T07:14:55;5.42;;;2.90;;
41456;SDS011;27197;51.752;5.220;2023-09-18T07:17:27;5.35;;;2.70;;
41456;SDS011;27197;51.752;5.220;2023-09-18T07:19:55;4.78;;;2.90;;
41456;SDS011;27197;51.752;5.220;2023-09-18T07:22:28;5.20;;;2.70;;
41456;SDS011;27197;51.752;5.220;2023-09-18T07:24:58;4.22;;;2.50;;
41456;SDS011;27197;51.752;5.220;2023-09-18T07:27:30;4.55;;;2.58;;
41456;SDS011;27197;51.752;5.220;2023-09-18T07:30:00;5.28;;;3.00;;
41456;SDS011;27197;51.752;5.220;2023-09-18T07:32:33;6.62;;;2.77;;
41456;SDS011;27197;51.752;5.220;2023-09-18T07:35:05;3.95;;;2.67;;
41456;SDS011;27197;51.752;5.220;2023-09-18T07:37:36;7.15;;;2.75;;
41456;SDS011;27197;51.752;5.220;2023-09-18T07:40:05;4.37;;;2.98;;
41456;SDS011;27197;51.752;5.220;2023-09-18T07:42:33;4.22;;;2.70;;
41456;SDS011;27197;51.752;5.220;2023-09-18T07:45:06;3.22;;;2.20;;
41456;SDS011;27197;51.752;5.220;2023-09-18T07:47:38;3.85;;;2.33;;
41456;SDS011;27197;51.752;5.220;2023-09-18T07:50:12;5.00;;;2.50;;
41456;SDS011;27197;51.752;5.220;2023-09-18T07:52:42;6.37;;;2.42;;
41456;SDS011;27197;51.752;5.220;2023-09-18T07:55:14;3.70;;;2.40;;
41456;SDS011;27197;51.752;5.220;2023-09-18T07:57:44;3.30;;;1.90;;
41456;SDS011;27197;51.752;5.220;2023-09-18T08:00:15;4.22;;;2.37;;
41456;SDS011;27197;51.752;5.220;2023-09-18T08:02:47;3.27;;;1.82;;
41456;SDS011;27197;51.752;5.220;2023-09-18T08:05:20;5.08;;;2.25;;
41456;SDS011;27197;51.752;5.220;2023-09-18T08:07:49;4.28;;;1.85;;
41456;SDS011;27197;51.752;5.220;2023-09-18T08:10:21;4.60;;;2.40;;
41456;SDS011;27197;51.752;5.220;2023-09-18T08:12:50;4.58;;;2.25;;
41456;SDS011;27197;51.752;5.220;2023-09-18T08:15:21;4.58;;;2.12;;
41456;SDS011;27197;51.752;5.220;2023-09-18T08:17:54;3.62;;;2.20;;
41456;SDS011;27197;51.752;5.220;2023-09-18T08:20:25;4.00;;;2.20;;
41456;SDS011;27197;51.752;5.220;2023-09-18T08:22:58;3.27;;;1.90;;
41456;SDS011;27197;51.752;5.220;2023-09-18T08:25:31;3.55;;;2.12;;
41456;SDS011;27197;51.752;5.220;2023-09-18T08:28:00;3.27;;;1.90;;
41456;SDS011;27197;51.752;5.220;2023-09-18T08:30:32;3.60;;;1.92;;
41456;SDS011;27197;51.752;5.220;2023-09-18T08:33:02;4.10;;;1.82;;
41456;SDS011;27197;51.752;5.220;2023-09-18T08:35:36;5.00;;;2.00;;
41456;SDS011;27197;51.752;5.220;2023-09-18T08:38:05;3.22;;;1.92;;
41456;SDS011;27197;51.752;5.220;2023-09-18T08:40:39;4.30;;;1.98;;
41456;SDS011;27197;51.752;5.220;2023-09-18T08:43:08;2.75;;;1.98;;
41456;SDS011;27197;51.752;5.220;2023-09-18T08:45:43;5.37;;;2.17;;
41456;SDS011;27197;51.752;5.220;2023-09-18T08:48:24;4.40;;;2.10;;
41456;SDS011;27197;51.752;5.220;2023-09-18T08:50:57;4.72;;;2.30;;
41456;SDS011;27197;51.752;5.220;2023-09-18T08:53:34;5.12;;;2.30;;
41456;SDS011;27197;51.752;5.220;2023-09-18T08:56:05;2.95;;;1.50;;
41456;SDS011;27197;51.752;5.220;2023-09-18T08:58:39;3.58;;;1.70;;
41456;SDS011;27197;51.752;5.220;2023-09-18T09:01:10;3.58;;;1.57;;
41456;SDS011;27197;51.752;5.220;2023-09-18T09:03:43;3.90;;;1.80;;
41456;SDS011;27197;51.752;5.220;2023-09-18T09:06:13;3.37;;;1.45;;
41456;SDS011;27197;51.752;5.220;2023-09-18T09:08:43;3.60;;;1.90;;
41456;SDS011;27197;51.752;5.220;2023-09-18T09:11:12;3.08;;;1.70;;
41456;SDS011;27197;51.752;5.220;2023-09-18T09:13:46;4.40;;;1.50;;
41456;SDS011;27197;51.752;5.220;2023-09-18T09:16:18;4.15;;;1.55;;
41456;SDS011;27197;51.752;5.220;2023-09-18T09:18:49;4.17;;;1.67;;
41456;SDS011;27197;51.752;5.220;2023-09-18T09:21:18;3.98;;;1.40;;
41456;SDS011;27197;51.752;5.220;2023-09-18T09:23:53;4.42;;;1.82;;
41456;SDS011;27197;51.752;5.220;2023-09-18T09:26:22;4.87;;;1.57;;
41456;SDS011;27197;51.752;5.220;2023-09-18T09:28:55;2.65;;;1.60;;
41456;SDS011;27197;51.752;5.220;2023-09-18T09:31:26;4.22;;;2.02;;
41456;SDS011;27197;51.752;5.220;2023-09-18T09:34:02;4.35;;;2.12;;
41456;SDS011;27197;51.752;5.220;2023-09-18T09:36:32;4.47;;;2.27;;
41456;SDS011;27197;51.752;5.220;2023-09-18T09:39:04;4.60;;;2.40;;
41456;SDS011;27197;51.752;5.220;2023-09-18T09:41:34;2.37;;;1.92;;
41456;SDS011;27197;51.752;5.220;2023-09-18T09:46:32;5.28;;;2.30;;
41456;SDS011;27197;51.752;5.220;2023-09-18T09:49:06;5.75;;;2.02;;
41456;SDS011;27197;51.752;5.220;2023-09-18T09:51:35;2.98;;;1.80;;
41456;SDS011;27197;51.752;5.220;2023-09-18T09:54:04;5.87;;;2.12;;
41456;SDS011;27197;51.752;5.220;2023-09-18T09:56:46;4.90;;;2.85;;
41456;SDS011;27197;51.752;5.220;2023-09-18T09:59:18;3.50;;;2.60;;
41456;SDS011;27197;51.752;5.220;2023-09-18T10:01:53;5.78;;;2.50;;
41456;SDS011;27197;51.752;5.220;2023-09-18T10:04:22;5.25;;;2.77;;
41456;SDS011;27197;51.752;5.220;2023-09-18T10:06:56;5.78;;;2.83;;
41456;SDS011;27197;51.752;5.220;2023-09-18T10:09:27;6.75;;;2.62;;
41456;SDS011;27197;51.752;5.220;2023-09-18T10:11:56;5.95;;;2.90;;
41456;SDS011;27197;51.752;5.220;2023-09-18T10:14:32;7.12;;;2.72;;
41456;SDS011;27197;51.752;5.220;2023-09-18T10:17:14;7.00;;;2.60;;
41456;SDS011;27197;51.752;5.220;2023-09-18T10:19:54;4.87;;;2.27;;
41456;SDS011;27197;51.752;5.220;2023-09-18T10:22:42;5.85;;;3.40;;
41456;SDS011;27197;51.752;5.220;2023-09-18T10:25:17;5.67;;;2.70;;
41456;SDS011;27197;51.752;5.220;2023-09-18T10:27:50;4.83;;;2.72;;
41456;SDS011;27197;51.752;5.220;2023-09-18T10:30:25;5.03;;;2.65;;
41456;SDS011;27197;51.752;5.220;2023-09-18T10:33:01;7.37;;;3.10;;
41456;SDS011;27197;51.752;5.220;2023-09-18T10:35:34;6.03;;;2.72;;
41456;SDS011;27197;51.752;5.220;2023-09-18T10:38:06;4.70;;;2.35;;
41456;SDS011;27197;51.752;5.220;2023-09-18T10:40:36;6.08;;;3.33;;
41456;SDS011;27197;51.752;5.220;2023-09-18T10:43:05;5.42;;;2.62;;
41456;SDS011;27197;51.752;5.220;2023-09-18T10:45:43;6.03;;;2.95;;
41456;SDS011;27197;51.752;5.220;2023-09-18T10:48:13;6.17;;;2.55;;
41456;SDS011;27197;51.752;5.220;2023-09-18T10:50:47;3.92;;;2.40;;
41456;SDS011;27197;51.752;5.220;2023-09-18T10:53:19;4.80;;;2.22;;
41456;SDS011;27197;51.752;5.220;2023-09-18T10:55:51;5.80;;;2.20;;
41456;SDS011;27197;51.752;5.220;2023-09-18T10:58:25;3.90;;;2.50;;
41456;SDS011;27197;51.752;5.220;2023-09-18T11:00:56;5.47;;;2.33;;
41456;SDS011;27197;51.752;5.220;2023-09-18T11:03:32;4.80;;;2.67;;
41456;SDS011;27197;51.752;5.220;2023-09-18T11:06:05;5.33;;;2.55;;
41456;SDS011;27197;51.752;5.220;2023-09-18T11:08:45;5.12;;;2.70;;
41456;SDS011;27197;51.752;5.220;2023-09-18T11:11:19;4.12;;;2.50;;
41456;SDS011;27197;51.752;5.220;2023-09-18T11:13:52;6.92;;;3.35;;
41456;SDS011;27197;51.752;5.220;2023-09-18T11:19:12;6.65;;;3.25;;
41456;SDS011;27197;51.752;5.220;2023-09-18T11:21:37;7.03;;;2.60;;
41456;SDS011;27197;51.752;5.220;2023-09-18T11:24:18;5.65;;;2.70;;
41456;SDS011;27197;51.752;5.220;2023-09-18T11:26:48;5.47;;;3.08;;
41456;SDS011;27197;51.752;5.220;2023-09-18T11:29:22;5.33;;;3.60;;
41456;SDS011;27197;51.752;5.220;2023-09-18T11:31:55;7.42;;;3.35;;
41456;SDS011;27197;51.752;5.220;2023-09-18T11:34:27;6.90;;;3.42;;
41456;SDS011;27197;51.752;5.220;2023-09-18T11:37:01;6.17;;;2.87;;
41456;SDS011;27197;51.752;5.220;2023-09-18T11:39:37;4.87;;;3.00;;
41456;SDS011;27197;51.752;5.220;2023-09-18T11:42:16;6.95;;;3.52;;
41456;SDS011;27197;51.752;5.220;2023-09-18T11:44:51;5.80;;;3.35;;
41456;SDS011;27197;51.752;5.220;2023-09-18T11:47:19;7.97;;;3.52;;
41456;SDS011;27197;51.752;5.220;2023-09-18T11:49:57;5.37;;;3.30;;
41456;SDS011;27197;51.752;5.220;2023-09-18T11:52:29;5.30;;;2.87;;
41456;SDS011;27197;51.752;5.220;2023-09-18T11:55:03;5.72;;;3.33;;
41456;SDS011;27197;51.752;5.220;2023-09-18T11:57:38;4.30;;;3.22;;
41456;SDS011;27197;51.752;5.220;2023-09-18T12:00:06;5.33;;;3.05;;
41456;SDS011;27197;51.752;5.220;2023-09-18T12:02:38;5.15;;;3.12;;
41456;SDS011;27197;51.752;5.220;2023-09-18T12:05:11;4.58;;;2.77;;
41456;SDS011;27197;51.752;5.220;2023-09-18T12:07:43;4.28;;;3.00;;
41456;SDS011;27197;51.752;5.220;2023-09-18T12:10:17;5.17;;;3.00;;
41456;SDS011;27197;51.752;5.220;2023-09-18T12:12:51;4.75;;;3.08;;
41456;SDS011;27197;51.752;5.220;2023-09-18T12:15:22;6.60;;;3.02;;
41456;SDS011;27197;51.752;5.220;2023-09-18T12:17:56;6.00;;;2.62;;
41456;SDS011;27197;51.752;5.220;2023-09-18T12:20:25;4.58;;;2.55;;
41456;SDS011;27197;51.752;5.220;2023-09-18T12:22:57;3.90;;;2.45;;
41456;SDS011;27197;51.752;5.220;2023-09-18T12:25:26;4.75;;;2.70;;
41456;SDS011;27197;51.752;5.220;2023-09-18T12:28:01;4.55;;;2.58;;
41456;SDS011;27197;51.752;5.220;2023-09-18T12:30:30;5.00;;;2.92;;
41456;SDS011;27197;51.752;5.220;2023-09-18T12:33:03;6.25;;;2.62;;
41456;SDS011;27197;51.752;5.220;2023-09-18T12:35:32;5.60;;;2.70;;
41456;SDS011;27197;51.752;5.220;2023-09-18T12:38:12;3.90;;;2.45;;
41456;SDS011;27197;51.752;5.220;2023-09-18T12:40:39;6.80;;;2.33;;
41456;SDS011;27197;51.752;5.220;2023-09-18T12:43:12;6.22;;;2.55;;
41456;SDS011;27197;51.752;5.220;2023-09-18T12:45:43;4.40;;;2.37;;
41456;SDS011;27197;51.752;5.220;2023-09-18T12:48:15;4.60;;;2.17;;
41456;SDS011;27197;51.752;5.220;2023-09-18T12:50:51;3.90;;;2.52;;
41456;SDS011;27197;51.752;5.220;2023-09-18T12:53:22;4.10;;;2.37;;
41456;SDS011;27197;51.752;5.220;2023-09-18T12:55:53;5.37;;;2.47;;
41456;SDS011;27197;51.752;5.220;2023-09-18T12:58:29;4.28;;;2.70;;
41456;SDS011;27197;51.752;5.220;2023-09-18T13:01:03;4.80;;;1.95;;
41456;SDS011;27197;51.752;5.220;2023-09-18T13:03:36;5.40;;;2.58;;
41456;SDS011;27197;51.752;5.220;2023-09-18T13:06:16;3.15;;;2.00;;
41456;SDS011;27197;51.752;5.220;2023-09-18T13:08:49;2.87;;;2.02;;
41456;SDS011;27197;51.752;5.220;2023-09-18T13:11:21;6.92;;;2.40;;
41456;SDS011;27197;51.752;5.220;2023-09-18T13:13:57;4.40;;;2.55;;
41456;SDS011;27197;51.752;5.220;2023-09-18T13:16:28;3.92;;;2.08;;
41456;SDS011;27197;51.752;5.220;2023-09-18T13:19:03;5.95;;;2.08;;
41456;SDS011;27197;51.752;5.220;2023-09-18T13:21:31;4.22;;;2.00;;
41456;SDS011;27197;51.752;5.220;2023-09-18T13:24:06;3.55;;;2.08;;
41456;SDS011;27197;51.752;5.220;2023-09-18T13:26:36;3.40;;;2.08;;
41456;SDS011;27197;51.752;5.220;2023-09-18T13:29:09;4.65;;;2.15;;
41456;SDS011;27197;51.752;5.220;2023-09-18T13:31:39;5.00;;;2.30;;
41456;SDS011;27197;51.752;5.220;2023-09-18T13:34:10;2.90;;;1.98;;
41456;SDS011;27197;51.752;5.220;2023-09-18T13:36:42;4.10;;;1.77;;
41456;SDS011;27197;51.752;5.220;2023-09-18T13:39:16;3.98;;;2.00;;
41456;SDS011;27197;51.752;5.220;2023-09-18T13:41:46;4.47;;;2.15;;
41456;SDS011;27197;51.752;5.220;2023-09-18T13:44:22;3.35;;;1.87;;
41456;SDS011;27197;51.752;5.220;2023-09-18T13:46:50;8.98;;;2.25;;
41456;SDS011;27197;51.752;5.220;2023-09-18T13:49:21;5.50;;;2.00;;
41456;SDS011;27197;51.752;5.220;2023-09-18T13:51:54;5.37;;;2.47;;
41456;SDS011;27197;51.752;5.220;2023-09-18T13:54:23;4.42;;;2.00;;
41456;SDS011;27197;51.752;5.220;2023-09-18T13:56:51;2.98;;;1.60;;
41456;SDS011;27197;51.752;5.220;2023-09-18T13:59:21;4.58;;;1.90;;
41456;SDS011;27197;51.752;5.220;2023-09-18T14:01:54;4.35;;;1.95;;
41456;SDS011;27197;51.752;5.220;2023-09-18T14:04:24;3.72;;;1.80;;
41456;SDS011;27197;51.752;5.220;2023-09-18T14:06:57;5.00;;;1.85;;
41456;SDS011;27197;51.752;5.220;2023-09-18T14:09:26;4.25;;;2.10;;
41456;SDS011;27197;51.752;5.220;2023-09-18T14:11:57;3.10;;;1.80;;
41456;SDS011;27197;51.752;5.220;2023-09-18T14:14:28;3.72;;;1.80;;
41456;SDS011;27197;51.752;5.220;2023-09-18T14:16:58;3.37;;;1.80;;
41456;SDS011;27197;51.752;5.220;2023-09-18T14:19:27;5.25;;;1.80;;
41456;SDS011;27197;51.752;5.220;2023-09-18T14:21:59;4.12;;;1.92;;
41456;SDS011;27197;51.752;5.220;2023-09-18T14:24:31;3.50;;;1.85;;
41456;SDS011;27197;51.752;5.220;2023-09-18T14:27:06;4.55;;;1.87;;
41456;SDS011;27197;51.752;5.220;2023-09-18T14:29:36;4.08;;;1.75;;
41456;SDS011;27197;51.752;5.220;2023-09-18T14:32:07;4.08;;;2.45;;
41456;SDS011;27197;51.752;5.220;2023-09-18T14:34:37;3.75;;;1.82;;
41456;SDS011;27197;51.752;5.220;2023-09-18T14:37:09;6.08;;;1.80;;
41456;SDS011;27197;51.752;5.220;2023-09-18T14:39:39;4.03;;;1.85;;
41456;SDS011;27197;51.752;5.220;2023-09-18T14:42:08;4.25;;;1.57;;
41456;SDS011;27197;51.752;5.220;2023-09-18T14:44:38;4.67;;;1.80;;
41456;SDS011;27197;51.752;5.220;2023-09-18T14:47:10;4.10;;;1.90;;
41456;SDS011;27197;51.752;5.220;2023-09-18T14:49:42;4.92;;;2.30;;
41456;SDS011;27197;51.752;5.220;2023-09-18T14:52:13;3.87;;;1.57;;
41456;SDS011;27197;51.752;5.220;2023-09-18T14:54:47;1.32;;;0.70;;
41456;SDS011;27197;51.752;5.220;2023-09-18T14:57:22;3.17;;;0.70;;
41456;SDS011;27197;51.752;5.220;2023-09-18T14:59:54;3.62;;;0.93;;
41456;SDS011;27197;51.752;5.220;2023-09-18T15:02:24;4.78;;;0.90;;
41456;SDS011;27197;51.752;5.220;2023-09-18T15:04:54;3.12;;;0.45;;
41456;SDS011;27197;51.752;5.220;2023-09-18T15:07:28;4.42;;;0.90;;
41456;SDS011;27197;51.752;5.220;2023-09-18T15:09:58;1.75;;;1.07;;
41456;SDS011;27197;51.752;5.220;2023-09-18T15:12:27;2.65;;;0.80;;
41456;SDS011;27197;51.752;5.220;2023-09-18T15:14:55;4.03;;;0.88;;
41456;SDS011;27197;51.752;5.220;2023-09-18T15:17:27;2.87;;;0.85;;
41456;SDS011;27197;51.752;5.220;2023-09-18T15:20:00;2.33;;;1.02;;
41456;SDS011;27197;51.752;5.220;2023-09-18T15:22:34;2.55;;;0.90;;
41456;SDS011;27197;51.752;5.220;2023-09-18T15:25:04;1.40;;;0.75;;
41456;SDS011;27197;51.752;5.220;2023-09-18T15:27:39;2.42;;;0.80;;
41456;SDS011;27197;51.752;5.220;2023-09-18T15:30:09;2.42;;;0.90;;
41456;SDS011;27197;51.752;5.220;2023-09-18T15:32:50;3.00;;;0.95;;
41456;SDS011;27197;51.752;5.220;2023-09-18T15:35:21;5.87;;;1.40;;